• Join FlightAware (Why Join?)
  • Login
  • US Flag 
06:40PM EST


 

Airport Tracker/Info


-or-


 

Live Flight TrackerFlight Track Log ✈ N442PL ✈ 24-May-2013 ✈ KROX - KFCM

Flight Track Log - Related Links

Times and Time Zones

All times are in EDT time to prevent confusion due to time zone crossing. See the N442PL flight status page for this flight to view local times or setup timezone preferences in your user account.

Time Position Orientation Groundspeed Altitude Reporting Facility
EDT Latitude Longitude Course Direction KTS MPH feet Rate Location/Type
05:29PM 48.7681 -95.6342 153° Southeast 137 158 8,400  Level Minneapolis Center
05:30PM 48.7225 -95.6039 156° South 147 169 11,100 1,860 Climbing Minneapolis Center
05:34PM 48.4719 -95.4674 153° Southeast  Level Estimated
05:35PM 48.4380 -95.4060 156° South 224 258 20,800  Level FlightAware
05:36PM 48.3950 -95.3770 156° South 233 268 21,800 660 Climbing FlightAware
05:37PM 48.3590 -95.3510 154° Southeast 233 268 21,800 1,200 Level FlightAware
05:37PM 48.3180 -95.3240 156° South 239 275 23,400 1,740 Climbing FlightAware
05:38PM 48.2670 -95.2890 155° Southeast 243 280 24,300 1,020 Climbing FlightAware
05:39PM 48.2260 -95.2600 155° Southeast 247 284 25,000 540 Climbing FlightAware
05:39PM 48.1860 -95.2330 156° South 273 314 25,000  Level FlightAware
05:43PM 47.9310 -95.0600 156° South 294 338 25,000  Level FlightAware
05:44PM 47.8890 -95.0320 156° South 295 339 25,000  Level FlightAware
05:45PM 47.8220 -94.9850 155° Southeast 295 339 25,000  Level FlightAware
05:45PM 47.7840 -94.9590 155° Southeast 295 339 25,000  Level FlightAware
05:46PM 47.7350 -94.9240 154° Southeast 295 339 25,000  Level FlightAware
05:47PM 47.6970 -94.8980 155° Southeast 295 339 25,000  Level FlightAware
05:47PM 47.6460 -94.8630 155° Southeast 295 339 25,000  Level FlightAware
05:48PM 47.5330 -94.7930 157° South 295 339 25,000  Level FlightAware
05:49PM 47.4810 -94.7590 156° South 294 338 25,000  Level FlightAware
05:50PM 47.4280 -94.7240 156° South 294 338 25,000  Level FlightAware
05:50PM 47.3780 -94.6910 156° South 295 339 25,000  Level FlightAware
05:51PM 47.3260 -94.6560 155° Southeast 296 341 25,000  Level FlightAware
05:52PM 47.2900 -94.6310 155° Southeast 296 341 25,000  Level FlightAware
05:53PM 47.2380 -94.5950 155° Southeast 296 341 25,000  Level FlightAware
05:53PM 47.1680 -94.5530 158° South 298 343 25,000  Level FlightAware
05:54PM 47.1130 -94.5170 156° South 299 344 25,000  Level FlightAware
05:55PM 47.0630 -94.4840 156° South 297 342 25,000  Level FlightAware
05:56PM 46.9670 -94.4220 156° South 297 342 25,000  Level FlightAware
05:57PM 46.8630 -94.3550 156° South 299 344 25,000  Level FlightAware
05:58PM 46.8100 -94.3210 156° South 299 344 25,000  Level FlightAware
05:59PM 46.7580 -94.2870 156° South 301 346 25,000  Level FlightAware
05:59PM 46.7030 -94.2520 156° South 300 345 25,000  Level FlightAware
06:00PM 46.6530 -94.2200 156° South 300 345 25,000  Level FlightAware
06:01PM 46.5950 -94.1830 156° South 302 348 25,000  Level FlightAware
06:01PM 46.5520 -94.1550 156° South 303 349 25,000  Level FlightAware
06:02PM 46.5010 -94.1230 157° South 304 350 25,000 -480 Level FlightAware
06:03PM 46.4480 -94.0890 156° South 317 365 24,400 -1,200 Descending FlightAware
06:03PM 46.3880 -94.0510 156° South 324 373 23,300 -900 Descending FlightAware
06:04PM 46.3330 -94.0160 156° South 323 372 23,100 -1,800 Descending FlightAware
06:05PM 46.2700 -93.9820 160° South 317 365 20,800 -2,640 Descending FlightAware
06:05PM 46.2170 -93.9530 159° South 311 358 19,700 -1,620 Descending FlightAware
06:06PM 46.1590 -93.9210 159° South 304 350 18,600 -1,500 Descending FlightAware
06:07PM 46.1010 -93.8890 159° South 295 339 17,500 -1,500 Descending FlightAware
06:08PM 46.0510 -93.8620 159° South 288 331 16,500 -1,500 Descending FlightAware
06:08PM 45.9970 -93.8320 159° South 285 328 15,500 -1,380 Descending FlightAware
06:09PM 45.9480 -93.8050 159° South 282 325 14,600 -1,440 Descending FlightAware
06:10PM 45.8920 -93.7750 160° South 283 326 13,500 -1,440 Descending FlightAware
06:10PM 45.8400 -93.7470 159° South 283 326 12,500 -1,380 Descending FlightAware
06:11PM 45.7940 -93.7210 158° South 278 320 11,700 -1,440 Descending FlightAware
06:12PM 45.7470 -93.6960 160° South 275 316 10,700 -1,380 Descending FlightAware
06:12PM 45.7060 -93.6740 159° South 275 316 10,000 -1,380 Descending FlightAware
06:13PM 45.6720 -93.6550 159° South 269 310 9,300 -1,440 Descending FlightAware
06:13PM 45.6570 -93.6470 160° South 267 307 9,000 -1,320 Descending FlightAware
06:13PM 45.6240 -93.6290 159° South 262 302 8,400 -1,320 Descending FlightAware
06:14PM 45.5990 -93.6160 160° South 259 298 7,900 -1,320 Descending FlightAware
06:14PM 45.5680 -93.5990 159° South 258 297 7,300 -1,140 Descending FlightAware
06:15PM 45.5460 -93.5870 159° South 254 292 7,000 -900 Descending FlightAware
06:15PM 45.5160 -93.5710 160° South 249 287 6,600 -780 Descending FlightAware
06:16PM 45.4860 -93.5550 159° South 244 281 6,300 -720 Descending FlightAware
06:16PM 45.4600 -93.5410 159° South 242 278 6,000 -720 Descending FlightAware
06:16PM 45.4310 -93.5250 159° South 238 274 5,700 -540 Descending FlightAware
06:17PM 45.4020 -93.5100 160° South 233 268 5,500 -540 Descending FlightAware
06:17PM 45.3730 -93.4940 159° South 235 270 5,200 -600 Descending FlightAware
06:18PM 45.3620 -93.4920 173° South 233 268 5,100 -600 Descending FlightAware
06:18PM 45.3270 -93.5020 191° South 232 267 4,800 -660 Descending FlightAware
06:19PM 45.3020 -93.5100 193° South 232 267 4,500 -600 Descending FlightAware
06:19PM 45.2740 -93.5190 193° South 226 260 4,300 -600 Descending FlightAware
06:19PM 45.2440 -93.5290 193° South 226 260 4,000 -660 Descending FlightAware
06:20PM 45.2170 -93.5380 193° South 224 258 3,700 -720 Descending FlightAware
06:20PM 45.1890 -93.5470 193° South 221 254 3,400 -540 Descending FlightAware
06:21PM 45.1620 -93.5560 193° South 219 252 3,200 -540 Descending FlightAware
06:21PM 45.1340 -93.5660 194° South 218 251 2,900 -600 Descending FlightAware
06:22PM 45.1080 -93.5750 194° South 214 246 2,700 -240 Descending FlightAware
06:22PM 45.0800 -93.5850 194° South 206 237 2,700  Level FlightAware
06:23PM 45.0570 -93.5920 192° South 203 234 2,700  Level FlightAware
06:23PM 45.0420 -93.5980 196° South 203 234 2,700  Level FlightAware
06:23PM 45.0170 -93.6060 193° South 201 231 2,700  Level FlightAware
06:24PM 45.0030 -93.6030 171° South 202 232 2,700  Level FlightAware
06:24PM 44.9790 -93.5890 158° South 204 235 2,700 -120 Level FlightAware
06:25PM 44.9570 -93.5750 156° South 208 239 2,600 -480 Descending FlightAware
06:25PM 44.9310 -93.5600 158° South 207 238 2,300 -360 Descending FlightAware
06:25PM 44.9270 -93.5570 152° Southeast 207 238 2,300 -480 Level FlightAware
06:26PM 44.8860 -93.5220 149° Southeast 202 232 1,900 -480 Descending FlightAware
06:26PM 44.8660 -93.5110 159° South 173 199 1,900 -180 Level FlightAware
06:27PM 44.8550 -93.5070 166° South 154 177 1,800 -780 Descending FlightAware
06:27PM 44.8320 -93.4930 157° South 129 148 1,100 -720 Descending FlightAware
06:28PM 44.8280 -93.4640 101° East 123 142 800 -480 Descending FlightAware
06:36PM 44.8275 -93.4586 215° Southwest  Level Estimated
06:37PM 44.8275 -93.4586 215° Southwest  Level Estimated
06:38PM 44.8275 -93.4586 215° Southwest  Level Estimated